Time;durP1;ratioP1;P1;durP2;ratioP2;P2;SDS_P1;SDS_P2;PMS_P1;PMS_P2;Temp;Humidity;BMP_temperature;BMP_pressure;BME280_temperature;BME280_humidity;BME280_pressure;Samples;Min_cycle;Max_cycle;Signal;HPM_P1;HPM_P2
2022/03/17 00:01:36;;;;;;;25.00;18.88;;;13.00;75.50;;;;;;5060780;28;20183;-90
2022/03/17 00:04:02;;;;;;;32.30;18.47;;;13.00;75.70;;;;;;5056239;28;20200;-89
2022/03/17 00:06:28;;;;;;;34.80;18.63;;;13.00;75.80;;;;;;5034732;28;20456;-89
2022/03/17 00:08:54;;;;;;;34.70;18.30;;;13.30;75.70;;;;;;5038466;28;20447;-89
2022/03/17 00:11:20;;;;;;;31.10;18.85;;;13.30;75.30;;;;;;5038963;28;20241;-89
2022/03/17 00:13:46;;;;;;;34.38;19.63;;;13.40;75.00;;;;;;5039076;28;20181;-89
2022/03/17 00:16:12;;;;;;;29.60;18.25;;;13.30;74.80;;;;;;5038491;28;20235;-89
2022/03/17 00:18:38;;;;;;;30.58;18.50;;;13.20;75.20;;;;;;5038546;28;20184;-88
2022/03/17 00:21:04;;;;;;;30.47;19.13;;;13.30;75.40;;;;;;5057045;28;20249;-89
2022/03/17 00:23:30;;;;;;;30.17;19.70;;;13.30;75.50;;;;;;5038591;28;20466;-89
2022/03/17 00:25:56;;;;;;;32.15;18.90;;;13.30;75.60;;;;;;5036616;28;20431;-89
2022/03/17 00:28:22;;;;;;;30.53;18.23;;;13.40;75.60;;;;;;5037865;28;20192;-88
2022/03/17 00:30:48;;;;;;;32.33;20.20;;;13.50;75.70;;;;;;5056025;28;20184;-89
2022/03/17 00:33:13;;;;;;;35.93;20.40;;;13.70;75.40;;;;;;5040463;28;20469;-89
2022/03/17 00:35:42;;;;;;;37.37;22.70;;;13.70;75.40;;;;;;5042085;28;20232;-89
2022/03/17 00:38:15;;;;;;;39.67;21.48;;;13.70;75.30;;;;;;5063791;28;20427;-90
2022/03/17 00:40:43;;;;;;;35.63;22.35;;;13.70;75.20;;;;;;5046050;28;20773;-90
2022/03/17 00:43:11;;;;;;;36.53;21.05;;;13.80;75.10;;;;;;5044062;28;20212;-89
2022/03/17 00:45:38;;;;;;;45.00;23.40;;;13.80;75.10;;;;;;5039230;28;20201;-91
2022/03/17 00:48:04;;;;;;;31.45;19.45;;;13.90;75.50;;;;;;5038496;28;20194;-91
2022/03/17 00:50:45;;;;;;;37.83;22.63;;;13.90;75.40;;;;;;5056316;28;20173;-90
2022/03/17 00:53:11;;;;;;;47.45;24.10;;;13.90;75.40;;;;;;5038339;28;20317;-90
2022/03/17 00:55:37;;;;;;;44.37;22.27;;;13.90;75.60;;;;;;5038979;28;20193;-90
2022/03/17 00:58:03;;;;;;;37.77;23.50;;;13.90;76.00;;;;;;5059199;28;20173;-91
2022/03/17 01:00:29;;;;;;;37.58;23.27;;;13.90;76.20;;;;;;5062411;28;20193;-91
2022/03/17 01:02:57;;;;;;;44.00;25.70;;;13.90;76.40;;;;;;5042389;28;20204;-91
2022/03/17 01:05:23;;;;;;;38.67;22.50;;;13.80;76.60;;;;;;5036888;28;20217;-91
2022/03/17 01:07:53;;;;;;;50.22;26.60;;;13.90;77.00;;;;;;5038056;28;20173;-91
2022/03/17 01:10:19;;;;;;;46.08;24.60;;;13.70;77.50;;;;;;5039325;28;20184;-89
2022/03/17 01:12:46;;;;;;;46.67;26.45;;;13.70;78.10;;;;;;5038573;28;20185;-89
2022/03/17 01:15:14;;;;;;;40.67;23.95;;;13.70;78.30;;;;;;5055161;28;20189;-90
2022/03/17 01:17:40;;;;;;;42.55;24.85;;;13.70;78.60;;;;;;5058603;28;20359;-89
2022/03/17 01:20:07;;;;;;;41.20;25.60;;;13.60;78.90;;;;;;5058446;28;20186;-89
2022/03/17 01:22:33;;;;;;;47.47;23.75;;;13.60;79.10;;;;;;5039187;28;20903;-89
2022/03/17 01:25:13;;;;;;;45.03;25.73;;;13.50;79.50;;;;;;5055706;28;20223;-89
2022/03/17 01:27:39;;;;;;;43.47;24.02;;;13.50;79.90;;;;;;5037320;28;20161;-89
2022/03/17 01:30:09;;;;;;;44.20;25.20;;;13.50;80.30;;;;;;5037180;28;20177;-89
2022/03/17 01:32:37;;;;;;;45.45;23.77;;;13.50;80.70;;;;;;5056397;28;20260;-89
2022/03/17 01:35:05;;;;;;;40.45;23.33;;;13.50;80.80;;;;;;5059574;28;20185;-89
2022/03/17 01:37:30;;;;;;;38.75;22.00;;;13.50;80.70;;;;;;5056432;28;20242;-89
2022/03/17 01:39:56;;;;;;;37.27;20.43;;;13.50;81.00;;;;;;5041192;28;20177;-89
2022/03/17 01:42:22;;;;;;;38.33;21.30;;;13.30;81.50;;;;;;5040834;28;20173;-88
2022/03/17 01:44:48;;;;;;;29.30;18.20;;;13.20;82.00;;;;;;5038081;28;20197;-88
2022/03/17 01:47:29;;;;;;;22.90;16.80;;;13.00;82.70;;;;;;5037409;28;20202;-88
2022/03/17 01:50:01;;;;;;;23.70;15.13;;;13.00;83.00;;;;;;5036512;28;20446;-88
2022/03/17 01:52:30;;;;;;;22.08;15.23;;;12.50;82.90;;;;;;5036892;28;20187;-89
2022/03/17 01:54:56;;;;;;;22.55;14.82;;;12.10;83.80;;;;;;5037529;28;20181;-88
2022/03/17 01:57:23;;;;;;;20.85;14.15;;;12.00;83.40;;;;;;5038741;28;20574;-89
2022/03/17 01:59:50;;;;;;;22.08;16.00;;;11.90;83.60;;;;;;5043664;28;20208;-87
2022/03/17 02:02:16;;;;;;;26.98;16.67;;;11.80;83.40;;;;;;5066753;28;20181;-87
2022/03/17 02:04:42;;;;;;;22.10;15.52;;;11.60;83.50;;;;;;5070293;28;20196;-88
2022/03/17 02:07:11;;;;;;;26.13;16.40;;;11.50;84.10;;;;;;5054127;28;20197;-88
2022/03/17 02:09:37;;;;;;;31.02;16.38;;;11.40;84.20;;;;;;5057614;28;20161;-88
2022/03/17 02:14:55;;;;;;;28.63;15.60;;;11.40;85.00;;;;;;5066527;28;20165;-87
2022/03/17 02:17:22;;;;;;;28.85;17.85;;;11.40;85.30;;;;;;5043901;28;20205;-88
2022/03/17 02:19:49;;;;;;;36.22;18.63;;;11.10;83.90;;;;;;5047368;28;20172;-89
2022/03/17 02:22:20;;;;;;;33.25;17.63;;;11.00;83.20;;;;;;5053292;28;20197;-88
2022/03/17 02:27:45;;;;;;;24.98;15.52;;;10.90;81.60;;;;;;5061993;28;20165;-87
2022/03/17 02:30:18;;;;;;;29.15;16.42;;;10.80;81.20;;;;;;5041983;28;20173;-87
2022/03/17 02:32:44;;;;;;;36.55;14.93;;;10.90;81.40;;;;;;5040740;28;20173;-87
2022/03/17 02:35:13;;;;;;;23.02;14.38;;;11.00;81.20;;;;;;5058037;28;20264;-87
2022/03/17 02:37:39;;;;;;;30.10;15.95;;;10.90;80.90;;;;;;5040205;28;20698;-87
2022/03/17 02:40:10;;;;;;;26.65;16.65;;;10.80;80.70;;;;;;5040490;28;20259;-86
2022/03/17 02:42:37;;;;;;;23.75;13.38;;;10.70;80.80;;;;;;5040558;28;20188;-87
2022/03/17 02:45:05;;;;;;;32.72;15.25;;;10.80;80.90;;;;;;5041166;28;20231;-86
2022/03/17 02:47:32;;;;;;;26.00;13.98;;;10.80;80.70;;;;;;5041221;28;20192;-86
2022/03/17 02:49:58;;;;;;;22.58;13.70;;;10.70;80.30;;;;;;5042749;28;20173;-88
2022/03/17 02:52:25;;;;;;;25.00;13.53;;;10.70;80.10;;;;;;5039525;28;20186;-89
2022/03/17 02:54:53;;;;;;;21.23;11.55;;;10.80;79.60;;;;;;5039386;28;20420;-87
2022/03/17 02:57:37;;;;;;;22.95;12.02;;;10.70;79.20;;;;;;5059691;28;20669;-88
2022/03/17 03:00:05;;;;;;;17.45;12.15;;;10.50;78.80;;;;;;5040756;28;20176;-87
2022/03/17 03:02:31;;;;;;;18.45;11.13;;;10.60;79.00;;;;;;5040896;28;20274;-88
2022/03/17 03:04:56;;;;;;;22.63;12.73;;;10.40;78.80;;;;;;5045797;28;20209;-90
2022/03/17 03:07:22;;;;;;;23.63;10.90;;;10.50;78.90;;;;;;5050042;28;20208;-90
2022/03/17 03:09:48;;;;;;;24.20;12.07;;;10.40;78.70;;;;;;5043853;28;20200;-89
2022/03/17 03:12:14;;;;;;;18.67;10.93;;;10.40;78.80;;;;;;5040457;28;20786;-88
2022/03/17 03:14:40;;;;;;;19.10;11.30;;;10.30;78.90;;;;;;5040846;28;20590;-87
2022/03/17 03:20:10;;;;;;;20.05;10.75;;;10.40;79.10;;;;;;5048450;28;20204;-86
2022/03/17 03:22:39;;;;;;;19.95;10.90;;;10.40;78.90;;;;;;5042990;28;20298;-89
2022/03/17 03:25:07;;;;;;;18.58;11.90;;;10.40;78.50;;;;;;5064275;28;20269;-88
2022/03/17 03:27:34;;;;;;;20.27;12.15;;;10.30;78.60;;;;;;5049279;28;20268;-86
2022/03/17 03:30:00;;;;;;;20.50;11.75;;;10.40;78.60;;;;;;5052463;28;20181;-85
2022/03/17 03:32:27;;;;;;;18.33;10.23;;;10.30;78.40;;;;;;5052309;28;20207;-86
2022/03/17 03:34:54;;;;;;;22.45;10.95;;;10.40;78.40;;;;;;5053512;28;20192;-89
2022/03/17 03:37:25;;;;;;;17.52;11.02;;;10.30;78.30;;;;;;5054616;28;20267;-89
2022/03/17 03:39:57;;;;;;;18.92;11.70;;;10.30;78.00;;;;;;5054747;28;20215;-90
2022/03/17 03:42:24;;;;;;;26.70;10.90;;;10.40;78.00;;;;;;5055212;28;20181;-89
2022/03/17 03:44:51;;;;;;;17.30;10.98;;;10.50;77.60;;;;;;5054158;28;20216;-89
2022/03/17 03:47:17;;;;;;;16.83;9.68;;;10.40;77.50;;;;;;5059130;28;20177;-88
2022/03/17 03:49:44;;;;;;;16.35;9.45;;;10.40;77.10;;;;;;5057829;28;20177;-89
2022/03/17 03:52:14;;;;;;;15.73;10.48;;;10.30;76.80;;;;;;5046229;28;20185;-92
2022/03/17 03:54:41;;;;;;;17.65;10.93;;;10.20;76.80;;;;;;5046427;28;20181;-90
2022/03/17 03:57:07;;;;;;;15.13;10.05;;;10.20;76.90;;;;;;5056356;28;20268;-89
2022/03/17 03:59:34;;;;;;;18.65;11.45;;;10.30;76.80;;;;;;5060913;28;20257;-89
2022/03/17 04:02:03;;;;;;;13.75;9.40;;;10.30;76.60;;;;;;5060938;28;20177;-89
2022/03/17 04:04:30;;;;;;;12.88;9.10;;;10.30;76.30;;;;;;5061223;28;20185;-90
2022/03/17 04:06:58;;;;;;;15.52;9.73;;;10.30;75.70;;;;;;5057195;28;20199;-90
2022/03/17 04:09:30;;;;;;;16.42;9.27;;;10.30;75.70;;;;;;5056507;28;20203;-90
2022/03/17 04:11:56;;;;;;;21.20;10.98;;;10.30;75.60;;;;;;5056878;28;20180;-90
2022/03/17 04:14:22;;;;;;;13.25;9.98;;;10.50;75.50;;;;;;5056813;28;20268;-90
2022/03/17 04:16:49;;;;;;;22.00;10.57;;;10.50;75.20;;;;;;5039499;28;20197;-90
2022/03/17 04:19:15;;;;;;;14.43;9.73;;;10.50;75.10;;;;;;5041875;28;20188;-90
2022/03/17 04:21:42;;;;;;;25.58;9.68;;;10.40;75.30;;;;;;5039780;28;20255;-90
2022/03/17 04:24:08;;;;;;;15.30;9.25;;;10.40;75.60;;;;;;5040576;28;20232;-90
2022/03/17 04:26:34;;;;;;;20.35;9.88;;;10.20;76.20;;;;;;5042789;28;20291;-90
2022/03/17 04:29:00;;;;;;;18.13;10.00;;;10.20;76.60;;;;;;5042891;28;20272;-90
2022/03/17 04:31:27;;;;;;;18.40;9.33;;;10.40;76.90;;;;;;5047034;28;20419;-90
2022/03/17 04:33:53;;;;;;;18.50;10.70;;;10.40;77.10;;;;;;5039205;28;20423;-90
2022/03/17 04:36:19;;;;;;;19.27;10.03;;;10.20;77.20;;;;;;5055453;28;20249;-90
2022/03/17 04:38:45;;;;;;;17.40;9.85;;;10.20;77.40;;;;;;5038493;28;20428;-89
2022/03/17 04:41:11;;;;;;;14.45;10.30;;;10.20;77.10;;;;;;5047303;28;20185;-90
2022/03/17 04:43:38;;;;;;;13.60;9.02;;;10.20;77.00;;;;;;5046761;28;20193;-90
2022/03/17 04:46:07;;;;;;;13.38;8.45;;;10.10;77.10;;;;;;5038738;28;20197;-90
2022/03/17 04:48:33;;;;;;;12.68;8.15;;;10.20;76.10;;;;;;5038307;28;20645;-90
2022/03/17 04:50:59;;;;;;;13.80;7.55;;;10.00;75.70;;;;;;5038910;28;20177;-90
2022/03/17 04:53:27;;;;;;;13.50;7.63;;;10.00;75.70;;;;;;5040969;28;20671;-90
2022/03/17 04:56:11;;;;;;;13.18;7.32;;;9.80;75.70;;;;;;5039472;28;20199;-90
2022/03/17 04:58:40;;;;;;;12.85;6.93;;;9.80;75.80;;;;;;5043460;28;20192;-90
2022/03/17 05:01:06;;;;;;;12.77;5.90;;;9.80;75.30;;;;;;5045301;28;20177;-90
2022/03/17 05:03:33;;;;;;;16.27;7.10;;;9.80;75.20;;;;;;5062912;28;20204;-90
2022/03/17 05:06:00;;;;;;;11.27;6.53;;;9.80;75.00;;;;;;5043523;28;20197;-90
2022/03/17 05:08:26;;;;;;;12.88;7.60;;;9.80;75.00;;;;;;5043885;28;20178;-89
2022/03/17 05:10:57;;;;;;;16.15;7.25;;;9.90;74.80;;;;;;5039848;28;20200;-90
2022/03/17 05:13:23;;;;;;;10.18;6.78;;;9.90;74.40;;;;;;5037523;28;20223;-90
2022/03/17 05:15:51;;;;;;;11.00;6.88;;;9.80;74.20;;;;;;5038881;28;20696;-90
2022/03/17 05:18:17;;;;;;;12.95;7.60;;;9.80;73.90;;;;;;5038862;28;20181;-89
2022/03/17 05:20:43;;;;;;;13.25;7.32;;;9.80;73.80;;;;;;5038083;28;20173;-90
2022/03/17 05:23:12;;;;;;;13.25;7.20;;;9.80;73.50;;;;;;5035758;28;20183;-89
2022/03/17 05:25:45;;;;;;;18.35;7.10;;;9.80;73.60;;;;;;5037143;28;20197;-90
2022/03/17 05:28:11;;;;;;;16.05;8.13;;;9.60;73.80;;;;;;5022882;28;20185;-89
2022/03/17 05:30:38;;;;;;;17.95;7.03;;;9.60;74.20;;;;;;5038462;28;20271;-90
2022/03/17 05:33:05;;;;;;;14.52;7.18;;;9.60;74.30;;;;;;5041902;28;20212;-89
2022/03/17 05:35:31;;;;;;;11.30;7.10;;;9.70;74.60;;;;;;5044616;28;20645;-88
2022/03/17 05:37:58;;;;;;;14.77;7.53;;;9.60;75.10;;;;;;5048132;28;20201;-89
2022/03/17 05:40:25;;;;;;;15.18;8.95;;;9.60;75.30;;;;;;5045694;28;20173;-88
2022/03/17 05:42:54;;;;;;;14.93;8.07;;;9.60;75.60;;;;;;5059924;28;20196;-88
2022/03/17 05:45:21;;;;;;;26.02;8.35;;;9.70;75.70;;;;;;5065132;28;20275;-88
2022/03/17 05:47:52;;;;;;;15.50;7.13;;;9.80;75.50;;;;;;5055192;28;20216;-88
2022/03/17 05:50:23;;;;;;;15.48;8.23;;;9.80;75.40;;;;;;5046706;28;20176;-88
2022/03/17 05:52:49;;;;;;;11.65;7.35;;;9.90;75.40;;;;;;5041595;28;20181;-88
2022/03/17 05:55:18;;;;;;;15.68;8.13;;;9.90;75.50;;;;;;5042492;28;20207;-88
2022/03/17 05:57:46;;;;;;;11.63;7.20;;;9.80;76.00;;;;;;5059693;28;20644;-87
2022/03/17 06:00:16;;;;;;;16.20;8.40;;;9.80;76.50;;;;;;5040970;28;20177;-86
2022/03/17 06:02:42;;;;;;;13.48;7.93;;;9.80;76.80;;;;;;5043173;28;20227;-86
2022/03/17 06:05:09;;;;;;;22.80;7.65;;;9.90;77.20;;;;;;5043365;28;20278;-87
2022/03/17 06:07:37;;;;;;;15.18;7.85;;;9.80;77.40;;;;;;5059910;28;20185;-87
2022/03/17 06:10:05;;;;;;;28.63;9.80;;;9.70;77.90;;;;;;5042511;28;20180;-89
2022/03/17 06:12:37;;;;;;;16.65;8.02;;;9.60;78.30;;;;;;5042320;28;20181;-89
2022/03/17 06:15:03;;;;;;;18.58;8.30;;;9.50;78.70;;;;;;5042299;28;20181;-90
2022/03/17 06:17:43;;;;;;;18.35;8.75;;;9.60;79.10;;;;;;5059536;28;20269;-90
2022/03/17 06:20:14;;;;;;;19.73;9.00;;;9.60;79.10;;;;;;5058960;28;20191;-90
2022/03/17 06:22:41;;;;;;;13.02;9.18;;;9.50;79.50;;;;;;5043028;28;20515;-90
2022/03/17 06:25:09;;;;;;;17.13;9.23;;;9.40;79.50;;;;;;5046838;28;20201;-90
2022/03/17 06:27:35;;;;;;;20.13;7.30;;;9.40;79.50;;;;;;5047823;28;20185;-90
2022/03/17 06:30:03;;;;;;;18.83;7.77;;;9.50;79.40;;;;;;5068603;28;20177;-91
2022/03/17 06:32:29;;;;;;;14.20;7.60;;;9.50;79.20;;;;;;5053239;28;20899;-91
2022/03/17 06:34:55;;;;;;;9.57;6.50;;;9.80;78.40;;;;;;5055828;28;20212;-90
2022/03/17 06:37:20;;;;;;;9.30;6.13;;;9.50;77.60;;;;;;5053884;28;20185;-93
2022/03/17 06:39:46;;;;;;;10.80;5.00;;;9.50;77.80;;;;;;5051444;28;20438;-93
2022/03/17 06:42:12;;;;;;;6.73;4.47;;;9.30;78.50;;;;;;5056805;28;20193;-91
2022/03/17 06:44:38;;;;;;;10.27;6.03;;;9.20;78.90;;;;;;5060982;28;20200;-93
2022/03/17 06:47:04;;;;;;;7.47;4.77;;;9.20;79.70;;;;;;5045825;28;20435;-88
2022/03/17 06:49:30;;;;;;;10.93;4.78;;;9.10;80.10;;;;;;5049832;28;20432;-87
2022/03/17 06:51:56;;;;;;;8.23;5.17;;;9.00;81.00;;;;;;5070830;28;20191;-88
2022/03/17 06:54:22;;;;;;;11.55;5.40;;;9.00;81.80;;;;;;5043519;28;20188;-89
2022/03/17 06:56:48;;;;;;;13.63;6.20;;;9.10;82.80;;;;;;5040492;28;20193;-87
2022/03/17 06:59:14;;;;;;;12.65;4.85;;;8.90;82.70;;;;;;5041181;28;20185;-87
2022/03/17 07:01:43;;;;;;;12.63;5.70;;;8.90;83.90;;;;;;5040929;28;20311;-87
2022/03/17 07:04:08;;;;;;;9.63;5.90;;;8.90;83.00;;;;;;5041548;28;20227;-86
2022/03/17 07:06:34;;;;;;;7.70;5.27;;;8.90;82.80;;;;;;5045389;28;20192;-87
2022/03/17 07:09:06;;;;;;;13.97;5.40;;;8.90;83.20;;;;;;5059697;28;20173;-88
2022/03/17 07:11:32;;;;;;;8.43;5.88;;;9.00;82.90;;;;;;5042184;28;20241;-88
2022/03/17 07:13:58;;;;;;;9.00;4.35;;;9.00;83.10;;;;;;5041944;28;20199;-91
2022/03/17 07:16:23;;;;;;;12.83;5.70;;;8.90;82.50;;;;;;5042350;28;20717;-91
2022/03/17 07:18:49;;;;;;;7.87;5.07;;;8.90;82.50;;;;;;5042273;28;20173;-91
2022/03/17 07:21:15;;;;;;;11.88;4.70;;;8.90;82.10;;;;;;5060451;28;20201;-91
2022/03/17 07:23:42;;;;;;;12.73;4.93;;;8.90;81.60;;;;;;5054733;28;20212;-90
2022/03/17 07:26:08;;;;;;;13.48;4.95;;;8.90;81.50;;;;;;5030716;28;20342;-91
2022/03/17 07:28:34;;;;;;;8.90;5.30;;;8.80;81.30;;;;;;5041463;28;20205;-89
2022/03/17 07:31:00;;;;;;;11.43;5.20;;;9.00;81.00;;;;;;5059049;28;20418;-91
2022/03/17 07:33:26;;;;;;;7.43;4.30;;;9.20;80.60;;;;;;5041827;28;20231;-91
2022/03/17 07:35:52;;;;;;;6.60;3.13;;;9.20;78.90;;;;;;5047143;28;20197;-90
2022/03/17 07:38:17;;;;;;;8.15;3.22;;;9.20;77.60;;;;;;5066079;28;20291;-91
2022/03/17 07:40:45;;;;;;;4.00;2.20;;;9.20;75.70;;;;;;5043244;28;20227;-92
2022/03/17 07:43:11;;;;;;;5.00;2.20;;;9.10;74.40;;;;;;5042248;28;20602;-92
2022/03/17 07:45:37;;;;;;;6.03;2.00;;;9.10;73.80;;;;;;5045373;28;20213;-91
2022/03/17 07:48:05;;;;;;;4.07;2.47;;;9.10;73.50;;;;;;5048218;28;20169;-91
2022/03/17 07:50:32;;;;;;;3.58;2.20;;;9.20;73.20;;;;;;5046250;28;20431;-91
2022/03/17 07:52:59;;;;;;;6.32;2.83;;;9.40;72.80;;;;;;5066322;28;20177;-91
2022/03/17 07:55:25;;;;;;;5.75;1.80;;;9.70;72.70;;;;;;5026483;28;20223;-91
2022/03/17 07:57:51;;;;;;;3.78;1.65;;;9.60;71.50;;;;;;5039594;28;20243;-91
2022/03/17 08:00:17;;;;;;;5.60;2.50;;;9.40;71.40;;;;;;5040906;28;20235;-91
2022/03/17 08:02:43;;;;;;;3.30;1.83;;;9.30;71.60;;;;;;5042143;28;20188;-91
2022/03/17 08:05:10;;;;;;;10.73;2.65;;;9.50;71.70;;;;;;5061603;28;20451;-88
2022/03/17 08:07:36;;;;;;;4.65;2.17;;;9.50;71.30;;;;;;5039048;28;20200;-88
2022/03/17 08:10:05;;;;;;;9.63;1.55;;;9.60;71.10;;;;;;5056918;28;20173;-88
2022/03/17 08:12:31;;;;;;;3.95;1.77;;;9.60;70.40;;;;;;5056365;28;20203;-88
2022/03/17 08:14:58;;;;;;;2.55;1.50;;;9.50;70.20;;;;;;5038330;28;20648;-88
2022/03/17 08:17:24;;;;;;;8.25;1.92;;;9.40;70.20;;;;;;5038216;28;20231;-88
2022/03/17 08:19:50;;;;;;;5.78;1.33;;;9.50;69.90;;;;;;5038209;28;20760;-89
2022/03/17 08:22:16;;;;;;;4.60;1.77;;;9.40;69.50;;;;;;5038444;28;20208;-89
2022/03/17 08:24:42;;;;;;;3.55;1.30;;;9.30;69.10;;;;;;5056867;28;20452;-89
2022/03/17 08:27:08;;;;;;;4.10;1.97;;;9.40;68.80;;;;;;5038331;28;20354;-89
2022/03/17 08:29:34;;;;;;;2.13;1.50;;;9.40;68.30;;;;;;5038185;28;20173;-89
2022/03/17 08:32:00;;;;;;;3.60;1.47;;;9.50;67.80;;;;;;5038819;28;20424;-89
2022/03/17 08:34:26;;;;;;;3.15;1.55;;;9.60;68.20;;;;;;5045877;28;20420;-89
2022/03/17 08:36:56;;;;;;;5.68;1.55;;;9.80;67.30;;;;;;5041173;28;20201;-90
2022/03/17 08:39:22;;;;;;;7.88;1.73;;;9.80;66.80;;;;;;5043002;28;20586;-88
2022/03/17 08:41:49;;;;;;;3.63;2.05;;;9.90;67.10;;;;;;5039579;28;20177;-89
2022/03/17 08:44:14;;;;;;;4.53;1.55;;;10.10;67.10;;;;;;5057853;28;20203;-89
2022/03/17 08:49:25;;;;;;;7.18;1.65;;;10.40;66.50;;;;;;5060915;28;20160;-90
2022/03/17 08:51:53;;;;;;;7.10;2.17;;;10.10;66.20;;;;;;5042799;28;20303;-89
2022/03/17 08:54:22;;;;;;;7.80;1.77;;;10.00;66.40;;;;;;5057925;28;20183;-89
2022/03/17 08:56:59;;;;;;;3.40;2.25;;;9.80;66.20;;;;;;5039696;28;20197;-89
2022/03/17 08:59:36;;;;;;;6.22;2.05;;;9.80;66.60;;;;;;5044134;28;20192;-90
2022/03/17 09:02:03;;;;;;;11.07;2.80;;;9.80;66.50;;;;;;5048516;28;20641;-88
2022/03/17 09:04:29;;;;;;;2.70;1.92;;;9.80;66.30;;;;;;5052528;28;20687;-89
2022/03/17 09:07:02;;;;;;;8.07;2.63;;;9.80;66.30;;;;;;5043932;28;20201;-88
2022/03/17 09:09:28;;;;;;;3.75;2.42;;;9.80;66.00;;;;;;5064127;28;20625;-88
2022/03/17 09:11:54;;;;;;;2.90;2.60;;;9.80;65.90;;;;;;5052168;28;20220;-90
2022/03/17 09:14:21;;;;;;;8.32;2.50;;;9.90;65.70;;;;;;5053115;28;20196;-89
2022/03/17 09:16:47;;;;;;;4.20;1.92;;;9.80;65.70;;;;;;5047618;28;20387;-90
2022/03/17 09:19:13;;;;;;;2.73;1.80;;;9.90;65.80;;;;;;5047035;28;20434;-90
2022/03/17 09:21:38;;;;;;;8.30;2.20;;;10.10;65.20;;;;;;5050390;28;20192;-90
2022/03/17 09:24:05;;;;;;;5.33;1.90;;;10.10;64.80;;;;;;5057023;28;20217;-90
2022/03/17 09:26:32;;;;;;;4.15;2.60;;;10.10;64.50;;;;;;5043566;28;20420;-90
2022/03/17 09:28:58;;;;;;;4.38;2.25;;;10.30;64.10;;;;;;5059505;28;20191;-91
2022/03/17 09:31:24;;;;;;;5.03;2.00;;;10.30;63.10;;;;;;5058639;28;20196;-90
2022/03/17 09:33:50;;;;;;;4.20;1.87;;;10.40;62.70;;;;;;5056470;28;20186;-90
2022/03/17 09:36:16;;;;;;;2.40;2.00;;;10.50;62.10;;;;;;5040543;28;20447;-89
2022/03/17 09:38:43;;;;;;;3.50;1.90;;;10.50;61.90;;;;;;5040151;28;20205;-91
2022/03/17 09:41:25;;;;;;;2.20;1.80;;;10.50;61.60;;;;;;5024826;28;20191;-90
2022/03/17 09:43:54;;;;;;;2.25;1.90;;;10.50;61.50;;;;;;5038735;28;20193;-91
2022/03/17 09:46:34;;;;;;;4.38;2.20;;;10.40;61.00;;;;;;5039344;28;20684;-90
2022/03/17 09:49:03;;;;;;;5.57;2.03;;;10.40;61.00;;;;;;5038974;28;20630;-90
2022/03/17 09:51:29;;;;;;;2.25;1.30;;;10.50;60.70;;;;;;5041924;28;20181;-90
2022/03/17 09:54:00;;;;;;;10.82;2.05;;;10.60;60.10;;;;;;5045276;28;20185;-89
2022/03/17 09:56:30;;;;;;;4.90;1.50;;;10.50;60.00;;;;;;5042482;28;20315;-90
2022/03/17 09:58:58;;;;;;;3.38;1.55;;;10.50;60.00;;;;;;5057132;28;20174;-90
2022/03/17 10:01:28;;;;;;;3.90;2.25;;;10.60;60.20;;;;;;5039535;28;20180;-90
2022/03/17 10:03:59;;;;;;;4.13;2.25;;;10.80;59.90;;;;;;5045591;28;20208;-89
2022/03/17 10:06:25;;;;;;;8.85;3.53;;;10.70;60.30;;;;;;5042989;28;20399;-90
2022/03/17 10:08:52;;;;;;;5.30;3.10;;;10.80;60.40;;;;;;5039030;28;20228;-89
2022/03/17 10:11:30;;;;;;;4.82;2.83;;;10.80;60.50;;;;;;5039900;28;20261;-89
2022/03/17 10:13:57;;;;;;;5.32;3.00;;;10.70;60.70;;;;;;5037994;28;20185;-92
2022/03/17 10:16:25;;;;;;;7.57;2.72;;;10.80;60.80;;;;;;5057659;28;20221;-92
2022/03/17 10:19:02;;;;;;;5.05;2.60;;;11.00;60.80;;;;;;5036717;28;20208;-92
2022/03/17 10:21:29;;;;;;;4.15;2.85;;;11.10;60.10;;;;;;5021306;28;20271;-90
2022/03/17 10:23:56;;;;;;;3.22;2.95;;;11.00;59.80;;;;;;5038448;28;20201;-90
2022/03/17 10:26:42;;;;;;;7.50;2.83;;;11.10;59.90;;;;;;5025292;28;20204;-89
2022/03/17 10:29:22;;;;;;;7.60;2.90;;;11.00;60.20;;;;;;5045706;28;20560;-90
2022/03/17 10:32:09;;;;;;;5.38;3.10;;;11.20;59.40;;;;;;5051250;28;20177;-89
2022/03/17 10:34:51;;;;;;;7.82;2.97;;;11.40;59.00;;;;;;5064045;28;20204;-91
2022/03/17 10:37:19;;;;;;;5.57;2.85;;;11.50;58.60;;;;;;5041811;28;20204;-91
2022/03/17 10:39:50;;;;;;;7.05;3.63;;;11.70;58.50;;;;;;5041646;28;20189;-91
2022/03/17 10:42:20;;;;;;;4.53;2.38;;;11.80;57.90;;;;;;5041622;28;20181;-87
2022/03/17 10:44:51;;;;;;;4.97;2.05;;;11.90;57.70;;;;;;5040863;28;20208;-88
2022/03/17 10:47:27;;;;;;;2.90;2.42;;;11.90;57.20;;;;;;5058673;28;20197;-86
2022/03/17 10:50:06;;;;;;;17.25;3.40;;;11.70;57.30;;;;;;5058574;28;20180;-87
2022/03/17 10:52:55;;;;;;;5.63;2.60;;;11.70;57.50;;;;;;5061458;28;20177;-88
2022/03/17 10:55:30;;;;;;;6.03;2.95;;;11.40;57.60;;;;;;5047087;28;20181;-87
2022/03/17 10:58:16;;;;;;;2.67;2.45;;;11.50;57.80;;;;;;5027178;28;20187;-87
2022/03/17 11:00:56;;;;;;;4.28;3.00;;;11.40;57.60;;;;;;5043384;28;20181;-89
2022/03/17 11:03:23;;;;;;;9.40;3.70;;;11.60;57.70;;;;;;5042992;28;20622;-87
2022/03/17 11:05:50;;;;;;;3.50;2.45;;;11.70;57.60;;;;;;5040496;28;20587;-89
2022/03/17 11:08:20;;;;;;;4.78;3.65;;;11.70;57.40;;;;;;5040394;28;20246;-88
2022/03/17 11:10:46;;;;;;;5.53;2.35;;;11.50;57.70;;;;;;5041544;28;20189;-89
2022/03/17 11:13:12;;;;;;;14.63;3.60;;;11.60;58.10;;;;;;5059462;28;20259;-88
2022/03/17 11:16:06;;;;;;;4.85;3.05;;;11.70;58.20;;;;;;5066348;28;20661;-89
2022/03/17 11:18:36;;;;;;;14.65;3.50;;;11.80;57.90;;;;;;5040900;28;20208;-91
2022/03/17 11:21:20;;;;;;;5.07;4.25;;;11.80;57.90;;;;;;5042032;28;20177;-91
2022/03/17 11:24:06;;;;;;;5.68;3.88;;;11.60;58.20;;;;;;5061178;28;20193;-91
2022/03/17 11:26:43;;;;;;;5.10;3.60;;;11.30;59.10;;;;;;5043024;28;20201;-91
2022/03/17 11:29:21;;;;;;;5.45;3.80;;;11.40;59.30;;;;;;5061364;28;20150;-91
2022/03/17 11:32:00;;;;;;;8.38;3.85;;;11.30;59.80;;;;;;5043496;28;20188;-91
2022/03/17 11:35:05;;;;;;;10.90;4.15;;;11.30;60.10;;;;;;5071001;28;20185;-90
2022/03/17 11:37:33;;;;;;;6.45;4.40;;;11.40;60.00;;;;;;5048845;28;20213;-90
2022/03/17 11:40:12;;;;;;;6.50;3.70;;;11.50;59.70;;;;;;5061645;28;20257;-91
2022/03/17 11:42:42;;;;;;;4.07;3.05;;;11.20;59.90;;;;;;5041684;28;20174;-91
2022/03/17 11:45:31;;;;;;;3.58;3.20;;;11.00;60.50;;;;;;5045442;28;20188;-91
2022/03/17 11:47:59;;;;;;;7.20;3.50;;;11.00;60.90;;;;;;5067383;28;20184;-93
2022/03/17 11:50:34;;;;;;;9.20;4.90;;;10.70;61.50;;;;;;5067582;28;20169;-91
2022/03/17 11:53:01;;;;;;;11.30;4.93;;;10.70;62.20;;;;;;5058837;28;20176;-91
2022/03/17 11:55:36;;;;;;;4.60;4.10;;;10.80;62.30;;;;;;5052937;28;20188;-91
2022/03/17 11:58:42;;;;;;;8.25;3.90;;;10.80;62.30;;;;;;5054643;28;20212;-92
2022/03/17 12:01:25;;;;;;;7.05;4.18;;;10.90;62.50;;;;;;5043976;28;20671;-92
2022/03/17 12:04:02;;;;;;;5.00;3.35;;;11.00;62.20;;;;;;5059348;28;20212;-92
2022/03/17 12:06:29;;;;;;;4.03;3.20;;;11.00;62.10;;;;;;5078067;28;20272;-91
2022/03/17 12:08:59;;;;;;;9.60;3.20;;;11.10;61.70;;;;;;5049973;28;20190;-92
2022/03/17 12:11:29;;;;;;;3.42;3.10;;;11.10;61.20;;;;;;5042328;28;20174;-92
2022/03/17 12:14:23;;;;;;;5.35;3.60;;;11.20;61.20;;;;;;5022916;28;20239;-92
2022/03/17 12:16:58;;;;;;;7.35;3.70;;;11.40;60.80;;;;;;5040227;28;20212;-92
2022/03/17 12:19:36;;;;;;;3.10;2.55;;;11.40;60.10;;;;;;5041475;28;20179;-90
2022/03/17 12:22:09;;;;;;;7.10;3.95;;;11.30;59.90;;;;;;5041628;28;20170;-92
2022/03/17 12:24:39;;;;;;;3.53;2.90;;;11.50;59.70;;;;;;5049634;28;20208;-90
2022/03/17 12:27:06;;;;;;;5.03;3.00;;;11.50;59.30;;;;;;5056043;28;20258;-92
2022/03/17 12:29:32;;;;;;;8.32;3.60;;;11.40;57.90;;;;;;5057718;28;20257;-92
2022/03/17 12:32:06;;;;;;;3.58;2.90;;;11.50;58.10;;;;;;5051732;28;20188;-92
2022/03/17 12:34:33;;;;;;;8.50;3.67;;;11.60;58.50;;;;;;5050590;28;20192;-91
2022/03/17 12:37:01;;;;;;;6.78;3.53;;;11.50;57.60;;;;;;5049959;28;20198;-92
2022/03/17 12:39:28;;;;;;;4.88;3.03;;;11.40;56.90;;;;;;5048561;28;20194;-91
2022/03/17 12:41:56;;;;;;;6.30;3.13;;;11.50;56.10;;;;;;5048794;28;20205;-91
2022/03/17 12:44:26;;;;;;;6.00;3.38;;;11.60;56.30;;;;;;5045718;28;20202;-92
2022/03/17 12:46:53;;;;;;;6.57;2.75;;;11.70;56.40;;;;;;5058207;28;20681;-92
2022/03/17 12:49:19;;;;;;;3.72;2.85;;;11.80;55.40;;;;;;5040494;28;20641;-93
2022/03/17 12:51:46;;;;;;;14.65;3.50;;;11.70;55.30;;;;;;5041958;28;20174;-92
2022/03/17 12:54:16;;;;;;;6.50;3.40;;;11.60;55.80;;;;;;5043426;28;20560;-92
2022/03/17 12:56:52;;;;;;;8.52;3.00;;;11.60;56.40;;;;;;5043826;28;20208;-93
2022/03/17 12:59:19;;;;;;;4.85;2.75;;;11.30;56.40;;;;;;5040581;28;20181;-93
2022/03/17 13:01:46;;;;;;;7.50;3.50;;;11.70;56.40;;;;;;5024453;28;20217;-92